TAF KDMN
KDMN 072344Z 0800/0824 29010G18KT P6SM SCT250 FM080200 28005KT P6SM FEW250 FM081900 25012G20KT P6SM BKN200=
METAR KDMN
WC KDMN
WS KDMN
WV KDMN